Time;durP1;ratioP1;P1;durP2;ratioP2;P2;SDS_P1;SDS_P2;PMS_P1;PMS_P2;Temp;Humidity;BMP_temperature;BMP_pressure;BME280_temperature;BME280_humidity;BME280_pressure;Samples;Min_cycle;Max_cycle;Signal;HPM_P1;HPM_P2
2021/05/30 00:01:02;;;;;;;3.90;3.60;;;;;;;13.10;62.72;96301.13;4944688;29;20233;-86
2021/05/30 00:03:28;;;;;;;4.37;3.97;;;;;;;13.19;61.92;96296.72;4960849;28;20305;-85
2021/05/30 00:05:54;;;;;;;4.20;3.80;;;;;;;13.26;61.96;96299.44;4960717;29;20225;-86
2021/05/30 00:08:20;;;;;;;5.27;4.00;;;;;;;13.27;61.44;96291.50;4961214;29;20318;-87
2021/05/30 00:10:46;;;;;;;4.53;4.00;;;;;;;13.30;61.28;96300.66;4961290;29;20215;-86
2021/05/30 00:13:13;;;;;;;4.37;3.97;;;;;;;13.34;61.66;96301.94;4961093;29;20243;-86
2021/05/30 00:15:39;;;;;;;4.70;3.77;;;;;;;13.35;61.45;96295.78;4960651;29;20193;-87
2021/05/30 00:18:06;;;;;;;4.10;3.70;;;;;;;13.20;61.23;96295.75;4959587;28;20220;-86
2021/05/30 00:20:32;;;;;;;6.20;3.97;;;;;;;13.21;60.76;96299.16;4960281;28;20223;-86
2021/05/30 00:22:58;;;;;;;3.73;3.43;;;;;;;13.17;61.75;96295.28;4960370;29;20197;-87
2021/05/30 00:25:24;;;;;;;4.63;3.80;;;;;;;13.17;61.24;96293.50;4960079;29;20549;-87
2021/05/30 00:27:50;;;;;;;4.37;3.77;;;;;;;13.16;61.86;96299.66;4960205;29;20272;-86
2021/05/30 00:30:17;;;;;;;4.47;4.07;;;;;;;13.16;61.32;96291.91;4961640;28;20212;-86
2021/05/30 00:32:43;;;;;;;4.43;3.80;;;;;;;13.16;61.37;96293.69;4960032;29;20232;-87
2021/05/30 00:35:10;;;;;;;4.60;4.20;;;;;;;13.10;61.72;96293.38;4960612;29;20221;-87
2021/05/30 00:37:36;;;;;;;4.80;3.80;;;;;;;13.07;61.37;96296.31;4958595;28;20220;-85
2021/05/30 00:40:03;;;;;;;4.27;3.87;;;;;;;13.09;61.22;96296.94;4959980;29;20197;-84
2021/05/30 00:42:29;;;;;;;5.60;3.80;;;;;;;13.05;61.59;96293.09;4959952;28;20298;-85
2021/05/30 00:44:54;;;;;;;6.10;4.10;;;;;;;13.06;61.26;96288.75;4959891;29;20236;-86
2021/05/30 00:47:21;;;;;;;4.60;4.20;;;;;;;12.99;61.41;96288.63;4959644;29;20204;-85
2021/05/30 00:49:47;;;;;;;4.37;3.97;;;;;;;12.93;62.10;96284.13;4960867;29;20208;-85
2021/05/30 00:52:13;;;;;;;4.73;4.17;;;;;;;12.78;62.37;96288.47;4959850;29;20208;-87
2021/05/30 00:54:40;;;;;;;4.97;4.50;;;;;;;12.87;62.12;96281.47;4960486;29;20228;-86
2021/05/30 00:57:07;;;;;;;5.30;4.07;;;;;;;12.91;62.52;96278.34;4960096;29;20227;-85
2021/05/30 00:59:33;;;;;;;4.43;4.00;;;;;;;12.95;62.44;96287.34;4960125;29;20200;-87
2021/05/30 01:02:00;;;;;;;4.87;4.13;;;;;;;12.84;62.61;96274.84;4959430;29;20203;-86
2021/05/30 01:04:27;;;;;;;5.37;4.10;;;;;;;12.84;62.34;96281.81;4959582;29;20221;-87
2021/05/30 01:06:55;;;;;;;4.30;3.90;;;;;;;12.77;62.20;96279.09;4960233;29;20220;-84
2021/05/30 01:09:23;;;;;;;4.37;3.97;;;;;;;12.74;62.77;96289.78;4960049;29;20217;-87
2021/05/30 01:11:49;;;;;;;5.30;4.30;;;;;;;12.50;63.75;96288.19;4958673;29;20232;-84
2021/05/30 01:14:15;;;;;;;4.83;4.10;;;;;;;12.53;63.14;96285.22;4959495;29;20228;-86
2021/05/30 01:16:42;;;;;;;4.67;3.90;;;;;;;12.55;63.49;96285.88;4960647;29;20241;-86
2021/05/30 01:19:10;;;;;;;4.77;4.10;;;;;;;12.45;63.78;96291.25;4959767;29;20205;-85
2021/05/30 01:21:37;;;;;;;4.67;4.27;;;;;;;12.43;64.41;96293.22;4957600;29;20206;-86
2021/05/30 01:24:06;;;;;;;4.40;4.00;;;;;;;12.45;63.61;96287.88;4957883;29;20256;-85
2021/05/30 01:26:32;;;;;;;4.10;3.70;;;;;;;12.40;64.15;96298.72;4957667;29;20232;-87
2021/05/30 01:28:58;;;;;;;4.53;4.10;;;;;;;12.48;63.58;96295.28;4957915;29;20267;-86
2021/05/30 01:31:24;;;;;;;5.23;3.67;;;;;;;12.61;63.38;96292.13;4957421;29;20200;-85
2021/05/30 01:33:50;;;;;;;4.27;3.83;;;;;;;12.66;62.80;96297.59;4957298;29;20236;-85
2021/05/30 01:36:16;;;;;;;4.60;4.20;;;;;;;12.71;62.16;96290.91;4957523;29;20200;-87
2021/05/30 01:38:42;;;;;;;4.43;4.03;;;;;;;12.69;62.37;96294.69;4957470;29;20196;-87
2021/05/30 01:41:09;;;;;;;4.83;3.93;;;;;;;12.67;62.75;96294.03;4957891;29;20388;-86
2021/05/30 01:43:35;;;;;;;5.00;4.20;;;;;;;12.63;62.55;96291.00;4958570;29;20244;-85
2021/05/30 01:46:01;;;;;;;4.77;4.37;;;;;;;12.59;62.99;96296.66;4957633;29;20221;-83
2021/05/30 01:48:27;;;;;;;4.67;4.27;;;;;;;12.62;62.92;96302.28;4958109;29;20263;-85
2021/05/30 01:50:53;;;;;;;5.73;4.70;;;;;;;12.56;63.04;96297.81;4956795;29;20566;-85
2021/05/30 01:53:25;;;;;;;4.73;4.30;;;;;;;12.55;62.50;96295.38;4958222;28;20220;-84
2021/05/30 01:56:55;;;;;;;5.30;4.40;;;;;;;12.47;63.02;96301.44;4958048;29;20193;-84
2021/05/30 01:58:43;;;;;;;4.60;4.20;;;;;;;12.43;63.00;96300.16;4959188;29;20280;-85
2021/05/30 02:01:11;;;;;;;5.00;4.50;;;;;;;12.48;63.03;96305.63;4959132;29;20283;-84
2021/05/30 02:03:37;;;;;;;5.00;4.60;;;;;;;12.53;63.10;96303.31;4959014;29;20231;-85
2021/05/30 02:06:03;;;;;;;4.50;4.10;;;;;;;12.49;62.77;96309.81;4958518;29;20232;-86
2021/05/30 02:08:32;;;;;;;4.50;4.10;;;;;;;12.51;62.69;96309.66;4958485;29;20221;-87
2021/05/30 02:10:58;;;;;;;5.37;4.57;;;;;;;12.46;62.96;96302.41;4957344;29;20205;-84
2021/05/30 02:13:26;;;;;;;5.00;4.50;;;;;;;12.39;62.92;96314.38;4958020;29;20224;-85
2021/05/30 02:15:53;;;;;;;4.73;4.23;;;;;;;12.33;63.10;96300.34;4958308;29;20209;-84
2021/05/30 02:18:19;;;;;;;5.17;4.43;;;;;;;12.29;62.99;96306.84;4957697;29;20201;-85
2021/05/30 02:20:45;;;;;;;4.97;4.20;;;;;;;12.27;63.20;96298.47;4958035;29;20204;-87
2021/05/30 02:23:12;;;;;;;4.63;4.23;;;;;;;12.27;63.43;96300.25;4958067;29;20283;-87
2021/05/30 02:25:39;;;;;;;4.73;4.23;;;;;;;12.27;62.81;96297.66;4957797;29;20220;-85
2021/05/30 02:28:05;;;;;;;4.87;4.47;;;;;;;12.20;62.91;96304.47;4938230;29;20217;-85
2021/05/30 02:30:32;;;;;;;4.90;4.40;;;;;;;12.15;63.11;96301.56;4948557;29;20205;-85
2021/05/30 02:32:59;;;;;;;4.67;4.27;;;;;;;12.19;63.25;96308.81;4957086;29;20228;-85
2021/05/30 02:35:25;;;;;;;4.73;4.30;;;;;;;12.09;64.08;96310.81;4957901;29;20196;-85
2021/05/30 02:37:52;;;;;;;4.93;4.43;;;;;;;11.95;63.92;96314.88;4958127;29;20220;-84
2021/05/30 02:40:18;;;;;;;4.53;4.13;;;;;;;11.95;64.16;96316.66;4957316;29;20207;-86
2021/05/30 02:42:44;;;;;;;4.13;3.73;;;;;;;12.02;63.79;96308.09;4958236;29;20205;-85
2021/05/30 02:45:10;;;;;;;5.13;4.50;;;;;;;11.96;64.02;96311.31;4958240;29;20229;-84
2021/05/30 02:47:36;;;;;;;4.73;4.33;;;;;;;11.93;63.97;96316.03;4958303;29;20201;-86
2021/05/30 02:50:04;;;;;;;5.60;4.20;;;;;;;11.88;63.93;96318.31;4957238;29;20200;-83
2021/05/30 02:52:30;;;;;;;4.37;3.97;;;;;;;11.93;63.54;96316.81;4957817;29;20204;-86
2021/05/30 02:54:56;;;;;;;4.77;4.37;;;;;;;11.86;63.95;96323.63;4956763;29;20693;-85
2021/05/30 02:57:22;;;;;;;5.20;4.70;;;;;;;11.73;63.53;96328.50;4957661;29;20604;-85
2021/05/30 02:59:48;;;;;;;4.37;4.07;;;;;;;11.62;64.10;96324.47;4956430;29;20204;-85
2021/05/30 03:02:15;;;;;;;4.57;4.17;;;;;;;11.66;64.27;96320.59;4957804;29;20401;-85
2021/05/30 03:04:41;;;;;;;4.60;4.07;;;;;;;11.73;64.10;96321.56;4957052;28;20225;-86
2021/05/30 03:07:08;;;;;;;4.90;4.03;;;;;;;11.87;63.61;96322.66;4959584;29;20227;-86
2021/05/30 03:09:34;;;;;;;4.53;4.13;;;;;;;11.90;63.48;96330.09;4960001;29;20205;-86
2021/05/30 03:12:00;;;;;;;4.57;4.17;;;;;;;11.96;63.74;96326.81;4961151;29;20212;-86
2021/05/30 03:14:26;;;;;;;4.70;4.30;;;;;;;11.77;64.78;96332.34;4960805;29;20237;-85
2021/05/30 03:16:54;;;;;;;5.00;4.40;;;;;;;11.75;64.13;96334.25;4960685;29;20193;-86
2021/05/30 03:19:21;;;;;;;5.27;4.43;;;;;;;11.66;64.47;96343.00;4961098;29;20212;-87
2021/05/30 03:21:47;;;;;;;5.73;4.63;;;;;;;11.55;64.67;96348.47;4959795;29;20701;-83
2021/05/30 03:24:16;;;;;;;4.77;4.37;;;;;;;11.54;64.94;96344.31;4959984;29;20235;-85
2021/05/30 03:26:42;;;;;;;4.30;3.90;;;;;;;11.69;64.29;96346.06;4960422;29;20228;-84
2021/05/30 03:29:08;;;;;;;4.73;4.30;;;;;;;11.71;63.90;96348.47;4960789;29;20812;-85
2021/05/30 03:31:35;;;;;;;4.77;4.33;;;;;;;11.73;63.71;96341.38;4960441;29;20197;-85
2021/05/30 03:34:01;;;;;;;4.50;4.10;;;;;;;11.61;64.46;96351.22;4959917;29;20315;-86
2021/05/30 03:36:28;;;;;;;4.80;4.30;;;;;;;11.65;64.62;96354.28;4959457;28;20205;-84
2021/05/30 03:39:00;;;;;;;4.50;4.10;;;;;;;11.69;64.74;96353.00;4959432;29;20232;-84
2021/05/30 03:41:33;;;;;;;4.57;4.17;;;;;;;11.61;64.65;96358.97;4960195;29;20216;-85
2021/05/30 03:43:59;;;;;;;5.47;4.97;;;;;;;11.60;65.19;96349.63;4959845;29;20635;-86
2021/05/30 03:46:25;;;;;;;4.60;4.20;;;;;;;11.64;65.25;96347.50;4960138;29;20225;-87
2021/05/30 03:48:51;;;;;;;4.77;4.37;;;;;;;11.58;65.04;96343.81;4960520;29;20213;-85
2021/05/30 03:51:17;;;;;;;4.80;4.40;;;;;;;11.60;65.25;96356.53;4959252;29;20205;-85
2021/05/30 03:53:43;;;;;;;5.07;4.67;;;;;;;11.64;65.08;96348.31;4959588;29;20221;-84
2021/05/30 03:56:09;;;;;;;5.47;4.97;;;;;;;11.64;65.06;96350.09;4960312;29;20311;-85
2021/05/30 03:58:36;;;;;;;5.87;5.07;;;;;;;11.68;65.27;96349.63;4960406;29;20265;-85
2021/05/30 04:01:02;;;;;;;7.53;6.50;;;;;;;11.69;65.25;96353.00;4959554;29;20205;-83
2021/05/30 04:03:28;;;;;;;6.67;5.93;;;;;;;11.70;65.59;96358.00;4959761;29;20228;-87
2021/05/30 04:05:54;;;;;;;6.70;6.00;;;;;;;11.83;65.42;96354.94;4958919;29;20225;-85
2021/05/30 04:08:20;;;;;;;6.83;5.37;;;;;;;11.89;65.07;96353.47;4959569;29;20612;-86
2021/05/30 04:10:46;;;;;;;6.20;5.60;;;;;;;11.89;64.54;96354.28;4960299;29;20248;-86
2021/05/30 04:13:12;;;;;;;5.27;4.67;;;;;;;11.90;64.88;96352.50;4959777;29;20201;-85
2021/05/30 04:15:39;;;;;;;5.93;5.43;;;;;;;12.01;64.65;96359.88;4959609;29;20209;-85
2021/05/30 04:18:05;;;;;;;4.90;4.37;;;;;;;12.08;64.76;96353.91;4958813;29;20201;-84
2021/05/30 04:20:31;;;;;;;4.80;4.40;;;;;;;12.23;64.32;96361.75;4960249;28;20194;-84
2021/05/30 04:22:57;;;;;;;5.20;4.70;;;;;;;12.31;64.78;96356.56;4959722;29;20201;-85
2021/05/30 04:25:23;;;;;;;5.00;4.47;;;;;;;12.34;64.22;96352.81;4960382;29;20231;-85
2021/05/30 04:27:49;;;;;;;5.10;4.70;;;;;;;12.34;63.90;96340.69;4959624;29;20208;-85
2021/05/30 04:30:18;;;;;;;5.53;4.63;;;;;;;12.33;64.11;96352.00;4959642;29;20212;-84
2021/05/30 04:32:45;;;;;;;4.97;4.57;;;;;;;12.33;63.88;96346.03;4958843;29;20731;-86
2021/05/30 04:35:12;;;;;;;5.00;4.60;;;;;;;12.34;64.40;96345.06;4959674;29;20225;-84
2021/05/30 04:37:38;;;;;;;5.37;4.87;;;;;;;12.41;63.76;96344.22;4959869;29;20208;-85
2021/05/30 04:40:05;;;;;;;4.93;4.53;;;;;;;12.48;63.49;96346.94;4959037;29;20734;-83
2021/05/30 04:42:32;;;;;;;4.60;4.20;;;;;;;12.54;63.72;96348.84;4951923;29;20200;-84
2021/05/30 04:44:58;;;;;;;5.10;4.70;;;;;;;12.65;63.27;96350.25;4960707;29;20231;-84
2021/05/30 04:47:24;;;;;;;5.10;4.60;;;;;;;12.82;62.68;96354.34;4960778;29;20235;-85
2021/05/30 04:49:51;;;;;;;5.30;4.50;;;;;;;12.90;63.25;96354.28;4960525;29;20248;-86
2021/05/30 04:52:17;;;;;;;6.53;4.37;;;;;;;13.07;63.13;96352.41;4960314;29;20208;-86
2021/05/30 04:54:43;;;;;;;4.87;4.47;;;;;;;13.24;62.71;96356.50;4961013;29;20236;-85
2021/05/30 04:57:09;;;;;;;5.50;4.90;;;;;;;13.37;62.22;96356.69;4959416;29;20196;-85
2021/05/30 04:59:35;;;;;;;4.77;4.37;;;;;;;13.45;62.20;96353.25;4960636;29;20211;-84
2021/05/30 05:02:01;;;;;;;4.70;4.27;;;;;;;13.42;62.64;96351.81;4959866;29;20216;-85
2021/05/30 05:04:27;;;;;;;4.80;4.40;;;;;;;13.50;62.16;96348.34;4960615;29;20212;-83
2021/05/30 05:06:54;;;;;;;5.87;4.43;;;;;;;13.51;62.49;96351.72;4960806;29;20221;-86
2021/05/30 05:09:20;;;;;;;5.20;4.70;;;;;;;13.56;61.56;96354.59;4961818;29;20223;-84
2021/05/30 05:11:46;;;;;;;4.53;4.13;;;;;;;13.61;61.50;96349.72;4961286;29;20590;-85
2021/05/30 05:14:12;;;;;;;5.17;4.47;;;;;;;13.40;62.27;96347.78;4960570;29;20260;-84
2021/05/30 05:16:38;;;;;;;4.50;4.10;;;;;;;13.57;62.19;96354.44;4960580;29;20201;-85
2021/05/30 05:19:04;;;;;;;4.30;3.90;;;;;;;13.68;61.72;96355.78;4959159;29;20201;-85
2021/05/30 05:21:31;;;;;;;4.23;3.90;;;;;;;13.58;60.20;96348.28;4958377;29;20197;-84
2021/05/30 05:23:58;;;;;;;5.00;3.87;;;;;;;13.66;60.62;96344.81;4960535;29;20221;-84
2021/05/30 05:26:24;;;;;;;4.03;3.73;;;;;;;13.49;61.24;96347.53;4959497;29;20231;-86
2021/05/30 05:28:50;;;;;;;4.37;3.97;;;;;;;13.58;60.31;96343.09;4948798;29;20232;-84
2021/05/30 05:31:16;;;;;;;3.77;3.47;;;;;;;13.50;60.50;96345.75;4954448;29;20212;-84
2021/05/30 05:33:43;;;;;;;4.27;3.97;;;;;;;13.62;60.48;96359.09;4957483;28;20309;-86
2021/05/30 05:36:09;;;;;;;7.50;3.70;;;;;;;13.63;60.09;96352.94;4957590;28;20241;-85
2021/05/30 05:38:35;;;;;;;3.90;3.60;;;;;;;13.64;59.23;96344.19;4956313;29;20208;-86
2021/05/30 05:41:03;;;;;;;5.83;3.63;;;;;;;13.74;59.86;96349.91;4956782;29;20209;-85
2021/05/30 05:43:29;;;;;;;3.90;3.60;;;;;;;13.68;58.40;96351.41;4956939;28;20251;-85
2021/05/30 05:45:55;;;;;;;3.93;3.63;;;;;;;13.68;58.73;96348.00;4956968;28;20220;-85
2021/05/30 05:48:21;;;;;;;4.20;3.80;;;;;;;13.87;58.88;96347.50;4957214;28;20209;-85
2021/05/30 05:50:47;;;;;;;3.67;3.37;;;;;;;14.02;58.87;96343.13;4957486;29;20232;-84
2021/05/30 05:53:14;;;;;;;3.47;3.20;;;;;;;14.29;58.47;96341.66;4956681;29;20258;-86
2021/05/30 05:55:40;;;;;;;4.87;3.53;;;;;;;14.27;57.53;96348.81;4952864;29;20216;-86
2021/05/30 05:58:07;;;;;;;3.43;3.13;;;;;;;14.18;57.80;96344.72;4952128;29;20209;-86
2021/05/30 06:00:33;;;;;;;4.83;3.30;;;;;;;14.28;58.52;96352.22;4954396;29;20227;-86
2021/05/30 06:02:59;;;;;;;4.70;3.60;;;;;;;14.26;56.70;96346.41;4953177;29;20196;-83
2021/05/30 06:05:26;;;;;;;5.10;3.73;;;;;;;14.25;56.06;96347.38;4953744;29;20208;-86
2021/05/30 06:07:54;;;;;;;4.53;3.37;;;;;;;14.28;56.65;96341.84;4953797;29;20264;-83
2021/05/30 06:10:23;;;;;;;3.57;3.27;;;;;;;14.32;56.86;96343.91;4953534;29;20205;-83
2021/05/30 06:12:49;;;;;;;4.37;3.50;;;;;;;14.30;55.87;96343.28;4953851;29;20207;-84
2021/05/30 06:15:17;;;;;;;3.77;3.47;;;;;;;14.47;56.00;96349.09;4954629;29;20221;-86
2021/05/30 06:17:42;;;;;;;4.70;3.90;;;;;;;14.61;55.55;96352.66;4952903;29;20208;-85
2021/05/30 06:20:10;;;;;;;4.93;3.60;;;;;;;14.71;55.40;96345.38;4953227;29;20252;-84
2021/05/30 06:22:36;;;;;;;4.30;3.90;;;;;;;14.72;55.27;96349.56;4944533;29;20281;-84
2021/05/30 06:25:04;;;;;;;4.40;3.30;;;;;;;14.83;54.43;96346.50;4943483;29;20364;-85
2021/05/30 06:27:30;;;;;;;4.03;3.63;;;;;;;14.75;54.09;96347.44;4952554;29;20725;-84
2021/05/30 06:29:57;;;;;;;3.87;3.50;;;;;;;14.70;55.59;96346.34;4952576;29;20224;-85
2021/05/30 06:32:25;;;;;;;4.23;3.80;;;;;;;14.88;54.43;96346.75;4944218;29;20233;-85
2021/05/30 06:34:51;;;;;;;4.33;3.87;;;;;;;14.84;54.71;96346.31;4953221;29;20722;-85
2021/05/30 06:37:17;;;;;;;4.50;4.10;;;;;;;14.79;53.39;96340.09;4953293;29;20686;-84
2021/05/30 06:39:44;;;;;;;4.80;4.30;;;;;;;14.75;53.24;96339.66;4953065;28;20228;-85
2021/05/30 06:42:10;;;;;;;5.23;4.10;;;;;;;14.74;53.24;96334.66;4956023;29;20636;-84
2021/05/30 06:44:36;;;;;;;4.20;3.90;;;;;;;14.90;53.94;96334.41;4956892;29;20221;-84
2021/05/30 06:47:02;;;;;;;4.30;3.93;;;;;;;15.00;52.29;96336.72;4959328;29;20276;-83
2021/05/30 06:49:30;;;;;;;4.17;3.77;;;;;;;14.93;52.61;96328.84;4961096;29;20256;-87
2021/05/30 06:51:56;;;;;;;4.27;3.87;;;;;;;15.07;53.25;96327.97;4960468;29;20212;-85
2021/05/30 06:54:22;;;;;;;4.30;3.90;;;;;;;15.20;52.61;96329.91;4960895;29;20296;-83
2021/05/30 06:56:48;;;;;;;4.10;3.70;;;;;;;15.24;52.64;96325.94;4960659;29;20724;-85
2021/05/30 06:59:14;;;;;;;4.00;3.70;;;;;;;15.38;53.01;96330.25;4959267;29;20244;-83
2021/05/30 07:01:40;;;;;;;3.90;3.50;;;;;;;15.48;52.70;96328.13;4961083;29;20209;-85
2021/05/30 07:04:06;;;;;;;3.50;3.30;;;;;;;15.47;53.30;96334.31;4962199;29;20315;-84
2021/05/30 07:06:33;;;;;;;4.83;3.57;;;;;;;15.53;52.25;96335.34;4959874;28;20260;-86
2021/05/30 07:08:59;;;;;;;4.17;3.80;;;;;;;15.48;51.80;96330.72;4959717;29;20205;-84
2021/05/30 07:11:25;;;;;;;5.20;3.97;;;;;;;15.64;52.34;96327.06;4959482;29;20211;-85
2021/05/30 07:13:51;;;;;;;5.57;5.07;;;;;;;15.75;51.36;96336.94;4960744;29;20268;-85
2021/05/30 07:16:18;;;;;;;5.10;4.60;;;;;;;15.66;50.07;96338.06;4960455;29;20207;-85
2021/05/30 07:18:44;;;;;;;4.05;3.58;;;;;;;15.40;49.65;96337.81;4960034;29;20680;-85
2021/05/30 07:21:10;;;;;;;4.03;3.67;;;;;;;15.31;51.49;96338.97;4959450;29;20239;-85
2021/05/30 07:23:37;;;;;;;4.03;3.27;;;;;;;15.48;52.10;96338.50;4961948;28;20227;-85
2021/05/30 07:26:03;;;;;;;4.57;4.13;;;;;;;15.61;52.04;96345.59;4962268;29;20244;-84
2021/05/30 07:28:29;;;;;;;4.23;3.83;;;;;;;15.61;53.15;96345.59;4961645;29;20204;-87
2021/05/30 07:30:55;;;;;;;4.00;3.70;;;;;;;15.69;51.86;96342.88;4961714;29;20215;-86
2021/05/30 07:33:21;;;;;;;4.03;3.57;;;;;;;15.76;51.50;96338.53;4961497;29;20233;-84
2021/05/30 07:35:48;;;;;;;5.40;3.90;;;;;;;15.91;52.01;96337.63;4961634;29;20223;-85
2021/05/30 07:38:15;;;;;;;3.83;3.50;;;;;;;16.10;52.40;96329.94;4960575;28;20269;-84
2021/05/30 07:40:42;;;;;;;4.93;3.55;;;;;;;16.22;51.67;96328.38;4961608;29;20228;-85
2021/05/30 07:43:09;;;;;;;4.35;3.95;;;;;;;16.28;50.77;96328.63;4961037;29;20200;-84
2021/05/30 07:45:35;;;;;;;3.88;3.55;;;;;;;16.42;50.15;96327.66;4961644;28;20209;-84
2021/05/30 07:48:01;;;;;;;4.38;3.97;;;;;;;16.47;48.76;96326.09;4961413;28;20303;-85
2021/05/30 07:50:28;;;;;;;4.10;3.78;;;;;;;16.44;48.89;96330.88;4960615;28;20205;-85
2021/05/30 07:52:54;;;;;;;4.47;4.00;;;;;;;16.38;47.54;96337.66;4960125;29;20220;-84
2021/05/30 07:55:20;;;;;;;27.38;24.38;;;;;;;16.61;48.58;96328.72;4961547;29;20235;-85
2021/05/30 07:57:47;;;;;;;9.85;8.85;;;;;;;16.59;48.08;96323.72;4963064;29;20205;-84
2021/05/30 08:00:16;;;;;;;4.13;3.72;;;;;;;16.52;50.08;96322.94;4961686;29;20204;-83
2021/05/30 08:02:42;;;;;;;8.80;3.85;;;;;;;16.61;48.86;96324.34;4961542;29;20206;-86
2021/05/30 08:05:10;;;;;;;3.60;3.05;;;;;;;16.48;47.71;96327.72;4961568;29;20252;-85
2021/05/30 08:07:36;;;;;;;3.35;3.05;;;;;;;16.61;47.83;96319.13;4961893;29;21072;-85
2021/05/30 08:10:03;;;;;;;3.22;2.95;;;;;;;16.54;46.64;96319.13;4961495;29;20238;-83
2021/05/30 08:12:29;;;;;;;3.30;3.00;;;;;;;16.75;47.19;96320.78;4961215;28;20212;-85
2021/05/30 08:14:56;;;;;;;3.83;3.00;;;;;;;16.87;45.72;96321.84;4960779;29;20252;-85
2021/05/30 08:17:22;;;;;;;3.30;3.00;;;;;;;16.95;45.30;96320.84;4959965;29;20197;-85
2021/05/30 08:19:48;;;;;;;3.00;2.70;;;;;;;16.78;44.94;96320.41;4960273;28;20229;-85
2021/05/30 08:22:14;;;;;;;2.92;2.63;;;;;;;16.72;43.79;96316.00;4953774;29;20201;-82
2021/05/30 08:24:41;;;;;;;2.65;2.22;;;;;;;16.60;44.43;96317.53;4942533;29;20222;-85
2021/05/30 08:27:08;;;;;;;12.65;10.95;;;;;;;16.52;45.80;96321.13;4941417;29;20233;-86
2021/05/30 08:29:34;;;;;;;4.88;4.47;;;;;;;16.34;45.58;96320.84;4941188;29;20268;-84
2021/05/30 08:32:01;;;;;;;6.95;6.25;;;;;;;16.22;46.50;96322.38;4939612;29;20205;-83
2021/05/30 08:34:28;;;;;;;4.72;3.47;;;;;;;16.15;46.82;96326.78;4937568;29;20651;-85
2021/05/30 08:36:55;;;;;;;3.55;2.95;;;;;;;16.06;47.02;96330.50;4955238;29;20269;-85
2021/05/30 08:39:21;;;;;;;4.72;2.60;;;;;;;15.95;46.82;96323.28;4957171;29;20212;-83
2021/05/30 08:41:47;;;;;;;2.83;2.60;;;;;;;15.89;46.11;96325.63;4956627;29;20205;-83
2021/05/30 08:44:13;;;;;;;3.03;2.72;;;;;;;16.01;44.70;96325.88;4957800;29;20320;-84
2021/05/30 08:46:40;;;;;;;3.97;2.83;;;;;;;15.99;45.38;96327.88;4956755;29;20920;-84
2021/05/30 08:49:07;;;;;;;12.50;11.20;;;;;;;16.00;45.05;96326.88;4957636;29;20201;-85
2021/05/30 08:51:36;;;;;;;6.45;5.80;;;;;;;16.43;45.06;96317.09;4959035;29;20201;-85
2021/05/30 08:54:08;;;;;;;4.32;3.60;;;;;;;16.93;44.80;96322.84;4941652;29;20221;-86
2021/05/30 08:56:34;;;;;;;3.92;2.80;;;;;;;17.39;44.41;96320.28;4947463;29;20201;-84
2021/05/30 08:59:14;;;;;;;2.78;2.53;;;;;;;17.69;41.64;96314.69;4958713;29;20204;-85
2021/05/30 09:01:43;;;;;;;2.45;2.25;;;;;;;17.84;38.58;96321.25;4957422;29;20204;-84
2021/05/30 09:04:11;;;;;;;2.30;2.10;;;;;;;17.63;37.35;96318.84;4958728;28;20228;-84
2021/05/30 09:06:38;;;;;;;3.38;2.33;;;;;;;17.86;38.52;96306.22;4961962;29;20348;-83
2021/05/30 09:09:07;;;;;;;4.47;2.58;;;;;;;18.10;37.82;96302.13;4959700;29;20211;-84
2021/05/30 09:11:41;;;;;;;12.13;10.80;;;;;;;18.41;37.57;96305.84;4960424;28;20219;-85
2021/05/30 09:14:11;;;;;;;4.05;3.30;;;;;;;18.36;36.93;96297.84;4959514;29;20232;-83
2021/05/30 09:16:47;;;;;;;4.22;2.80;;;;;;;18.00;36.63;96301.78;4960218;29;20201;-84
2021/05/30 09:19:29;;;;;;;2.47;2.33;;;;;;;18.21;37.06;96304.13;4959407;28;20212;-84
2021/05/30 09:22:14;;;;;;;2.92;2.40;;;;;;;18.56;37.85;96306.38;4955136;28;20193;-83
2021/05/30 09:24:40;;;;;;;2.40;2.20;;;;;;;18.30;38.08;96302.88;4941598;29;20252;-83
2021/05/30 09:27:08;;;;;;;2.38;2.15;;;;;;;17.96;38.25;96305.78;4942447;29;20268;-83
2021/05/30 09:29:34;;;;;;;2.60;2.40;;;;;;;17.68;38.67;96302.66;4940928;29;20213;-83
2021/05/30 09:32:01;;;;;;;28.42;25.17;;;;;;;17.59;38.00;96302.03;4941114;29;20298;-84
2021/05/30 09:34:29;;;;;;;7.35;5.72;;;;;;;17.90;38.69;96307.41;4941336;29;20774;-83
2021/05/30 09:36:56;;;;;;;3.42;2.88;;;;;;;18.38;39.02;96306.25;4958688;28;20201;-82
2021/05/30 09:39:33;;;;;;;4.45;2.60;;;;;;;18.71;36.90;96300.91;4959303;28;20209;-85
2021/05/30 09:42:20;;;;;;;3.35;2.28;;;;;;;19.03;35.70;96317.38;4960363;28;20204;-83
2021/05/30 09:44:54;;;;;;;2.58;2.38;;;;;;;19.05;36.94;96300.47;4959677;28;20225;-84
2021/05/30 09:47:32;;;;;;;2.75;2.38;;;;;;;18.82;35.58;96298.44;4959431;29;20225;-85
2021/05/30 09:49:58;;;;;;;2.60;2.30;;;;;;;18.61;36.69;96301.38;4958319;29;20208;-84
2021/05/30 09:52:37;;;;;;;2.47;2.28;;;;;;;18.32;37.38;96292.22;4957958;29;20211;-82
2021/05/30 09:55:14;;;;;;;6.93;6.20;;;;;;;18.03;38.18;96301.38;4958197;29;20220;-83
2021/05/30 09:57:41;;;;;;;24.50;22.02;;;;;;;17.87;38.63;96299.22;4959197;29;20200;-83
2021/05/30 10:00:21;;;;;;;8.45;6.20;;;;;;;18.35;37.37;96302.25;4957887;29;20288;-85
2021/05/30 10:02:47;;;;;;;4.45;2.75;;;;;;;18.84;37.36;96308.66;4957998;29;20204;-83
2021/05/30 10:05:14;;;;;;;2.83;2.63;;;;;;;19.09;35.73;96296.44;4958043;29;20224;-83
2021/05/30 10:07:42;;;;;;;2.63;2.42;;;;;;;19.37;36.29;96295.22;4957436;29;20229;-82
2021/05/30 10:10:10;;;;;;;2.83;2.00;;;;;;;19.53;35.33;96297.31;4957192;29;20216;-85
2021/05/30 10:12:36;;;;;;;6.45;5.78;;;;;;;19.58;35.71;96297.47;4957415;29;20553;-84
2021/05/30 10:15:02;;;;;;;8.50;7.70;;;;;;;19.76;35.53;96292.28;4958760;28;20315;-84
2021/05/30 10:17:31;;;;;;;6.82;6.22;;;;;;;19.96;34.64;96284.22;4961811;28;20200;-84
2021/05/30 10:20:00;;;;;;;3.03;2.70;;;;;;;20.26;33.81;96289.50;4961037;28;20208;-84
2021/05/30 10:22:27;;;;;;;2.42;2.22;;;;;;;19.97;33.90;96283.22;4955091;29;20256;-84
2021/05/30 10:24:55;;;;;;;2.40;2.20;;;;;;;19.51;34.96;96289.69;4943136;29;20229;-84
2021/05/30 10:27:25;;;;;;;2.63;2.42;;;;;;;19.41;35.45;96291.97;4944369;29;20229;-82
2021/05/30 10:30:16;;;;;;;3.17;2.90;;;;;;;19.35;35.03;96287.59;4943558;29;20241;-84
2021/05/30 10:32:48;;;;;;;2.72;2.53;;;;;;;19.58;32.50;96293.06;4950247;29;20632;-83
2021/05/30 10:35:19;;;;;;;2.65;2.30;;;;;;;19.90;32.58;96285.88;4962454;28;20303;-84
2021/05/30 10:37:46;;;;;;;5.68;2.80;;;;;;;20.13;32.57;96285.25;4962100;28;20205;-83
2021/05/30 10:40:33;;;;;;;2.50;2.28;;;;;;;20.11;34.20;96284.66;4961724;29;20259;-86
2021/05/30 10:43:22;;;;;;;2.72;2.50;;;;;;;20.10;34.88;96284.88;4962658;29;20228;-84
2021/05/30 10:46:05;;;;;;;8.25;7.45;;;;;;;20.52;33.31;96283.97;4962741;28;20215;-84
2021/05/30 10:48:32;;;;;;;4.53;3.65;;;;;;;20.61;33.45;96279.22;4961346;28;20287;-84
2021/05/30 10:51:14;;;;;;;4.22;2.85;;;;;;;20.66;33.72;96290.63;4961638;28;20269;-84
2021/05/30 10:53:42;;;;;;;2.97;2.22;;;;;;;20.79;32.78;96289.63;4962800;29;20624;-84
2021/05/30 10:56:19;;;;;;;4.20;2.60;;;;;;;20.83;33.27;96295.22;4961188;29;20305;-84
2021/05/30 10:59:32;;;;;;;2.88;2.55;;;;;;;20.60;32.45;96285.47;4961186;29;20201;-83
2021/05/30 11:02:02;;;;;;;9.73;8.48;;;;;;;20.64;31.82;96284.00;4960781;29;20205;-83
2021/05/30 11:04:35;;;;;;;5.55;5.05;;;;;;;20.96;32.36;96281.97;4961268;29;20315;-85
2021/05/30 11:07:07;;;;;;;3.78;3.47;;;;;;;21.15;31.57;96287.94;4959941;29;20244;-84
2021/05/30 11:10:03;;;;;;;2.47;2.28;;;;;;;21.20;30.23;96281.00;4959400;29;20746;-85
2021/05/30 11:12:30;;;;;;;2.83;2.60;;;;;;;21.17;32.47;96283.22;4960326;29;20256;-84
2021/05/30 11:15:34;;;;;;;3.50;2.20;;;;;;;20.60;29.42;96282.84;4960632;29;20759;-85
2021/05/30 11:18:02;;;;;;;2.40;2.20;;;;;;;20.12;31.56;96286.25;4884008;29;20199;-83
2021/05/30 11:20:40;;;;;;;3.03;2.58;;;;;;;20.34;32.99;96276.13;4948852;28;20197;-86
2021/05/30 11:23:10;;;;;;;2.80;2.60;;;;;;;20.31;29.90;96287.84;4948775;28;20205;-86
2021/05/30 11:25:37;;;;;;;2.72;2.53;;;;;;;20.43;30.98;96280.06;4943571;29;20280;-83
2021/05/30 11:28:05;;;;;;;3.20;2.33;;;;;;;20.62;30.47;96278.19;4941866;29;20225;-83
2021/05/30 11:30:47;;;;;;;2.80;2.28;;;;;;;20.08;30.53;96279.84;4941822;29;20213;-84
2021/05/30 11:33:26;;;;;;;2.65;2.45;;;;;;;19.85;32.04;96282.31;4944198;29;20233;-84
2021/05/30 11:35:55;;;;;;;3.15;2.85;;;;;;;19.74;32.87;96286.47;4950932;29;20247;-84
2021/05/30 11:38:32;;;;;;;5.60;4.25;;;;;;;20.17;34.87;96283.78;4961492;28;20228;-86